Terminal Aerodrome Forecast
Issued by NWS

Home | Current Version | Previous Version | Text Only | Print | Product List | Glossary On
Versions: 1 2 3 4 5 6 7 8 9 10 11 12 13 14 15 16 17
060
FTUS44 KTSA 172124 AAB
TAFXNA
TAF AMD
KXNA 172124Z 1721/1818 24003KT P6SM BKN006 OVC010
     FM172300 20006KT P6SM OVC012
     FM180000 20004KT 4SM BR OVC007
     FM180600 20003KT 2SM BR OVC003
     FM181700 22007KT P6SM SKC=

USA.gov is the U.S. government's official web portal to all federal, state and local government web resources and services.